Detall de PIREP

Printer-friendly versionPDF version

[2013/12/30 10:24:00]
Flight IATA:CT1004
Pilot Number:012
Company ICAO:CAT
Aircraft Type:MD11/E
PAX:248
Aircraft Registration:PAX
Departing Airport: LEBL
Destination Airport: EDDH
Alternate Airport:EDDV
Online: VATSIM
Route:AGENA UM985 MONEB UN851 KEMAD UL190 NOLGO
Flight Level:F320
No Slew and time accel
No pause
Crash detect
Detect pilot in Cockpit between each 30 and 45 minutes
10:24 Zero fuel Weight: 376657 Lbs, Fuel Weight: 69865 Lbs
10:24 VATSIM:LEBL 301000Z 33013KT 290V350 CAVOK 07/01 Q1028 NOSIG
10:24 VATSIM:EDDH 300950Z 21015KT 9999 FEW013 05/02 Q1023 NOSIG
10:24 VOICE CATALONIAN / XMAS CHARTER
10:25 Parking Brakes off
10:30 Take-off
10:30 Take off Weight: 445234 Lbs
10:30 Wind: 326º @ 013 Knots Heading: 247º
10:30 POS N41º 17´ 09´´ E002º 05´ 04´´
10:30 Gear Up: 202 Knots
10:30 Flaps:3 at 202 Knots
10:31 Flaps:2 at 209 Knots
10:31 Flaps:3 at 209 Knots
10:31 Flaps:2 at 209 Knots
10:31 Flaps:1 at 210 Knots
10:32 Flaps:0 at 218 Knots
10:42 TOC
10:42 Fuel Weight: 60588 Lb
10:45 Wind:346º@059 Knots Heading: 056º Ground Speed: 454 Knots Altitude 32414 ft
11:00 Wind:354º@080 Knots Heading: 032º Ground Speed: 415 Knots Altitude 32355 ft
11:15 Wind:356º@090 Knots Heading: 045º Ground Speed: 423 Knots Altitude 32335 ft
11:30 Wind:000º@079 Knots Heading: 011º Ground Speed: 398 Knots Altitude 32345 ft
11:45 Wind:357º@064 Knots Heading: 354º Ground Speed: 410 Knots Altitude 32385 ft
12:00 Wind:354º@065 Knots Heading: 004º Ground Speed: 406 Knots Altitude 32368 ft
12:15 Wind:345º@076 Knots Heading: 002º Ground Speed: 399 Knots Altitude 32365 ft
12:30 Wind:334º@076 Knots Heading: 001º Ground Speed: 403 Knots Altitude 32339 ft
12:35 TOD
12:35 Fuel Weight: 30406 Lb
12:45 Wind:315º@031 Knots Heading: 003º Ground Speed: 343 Knots Altitude 17260 ft
12:53 Flaps:1 at 231 Knots
12:54 Flaps:2 at 221 Knots
12:54 Flaps:3 at 220 Knots
12:58 Flaps:4 at 191 Knots
12:58 Flaps:3 at 191 Knots
12:58 Flaps:4 at 191 Knots
12:58 Flaps:5 at 191 Knots
12:58 Flaps:6 at 191 Knots
13:00 Wind:247º@027 Knots Heading: 204º Ground Speed: 177 Knots Altitude 5577 ft
13:01 Gear Down: 186 Knots
13:01 Flaps:7 at 174 Knots
13:02 Flaps:6 at 191 Knots
13:02 Flaps:7 at 192 Knots
13:08 TouchDown:Rate -161 ft/min Speed: 156 Knots
13:08 VATSIM:EDDH 301250Z 17013KT CAVOK 06/01 Q1021 NOSIG
13:08 Land
13:08 Wind:187º@013 Knots
13:08 Heading: 155º
13:08 Flight Duration: 02:38
13:08 Landing Weight: 399799 Lbs
13:08 POS N53º 38´ 21´´ E009º 59´ 17´´
13:11 Parking brakes on
13:11 Block to Block Duration: 02:46
13:11 Final Fuel: 22813 Lbls
13:11 Spent Fuel: 47052 Lbls
13:11 Flight Length: 1018 NM
13:11 TOD Land Length: 147 NM

Exportar CSV

Powered by Drupal - Modified by Danger4k